sensor_id;sensor_type;location;lat;lon;timestamp;pressure;altitude;pressure_sealevel;temperature;humidity
14089;BME280;7120;52.890;6.040;2023-02-24T00:01:35;101454.81;;;4.21;77.66
14089;BME280;7120;52.890;6.040;2023-02-24T00:04:09;101448.13;;;4.24;77.08
14089;BME280;7120;52.890;6.040;2023-02-24T00:06:37;101439.66;;;4.03;78.53
14089;BME280;7120;52.890;6.040;2023-02-24T00:09:13;101433.47;;;3.91;79.09
14089;BME280;7120;52.890;6.040;2023-02-24T00:12:02;101439.94;;;3.62;80.15
14089;BME280;7120;52.890;6.040;2023-02-24T00:14:30;101428.91;;;3.51;81.33
14089;BME280;7120;52.890;6.040;2023-02-24T00:16:56;101430.34;;;3.54;82.35
14089;BME280;7120;52.890;6.040;2023-02-24T00:19:27;101429.97;;;3.50;81.80
14089;BME280;7120;52.890;6.040;2023-02-24T00:21:53;101431.72;;;3.56;81.69
14089;BME280;7120;52.890;6.040;2023-02-24T00:24:20;101426.44;;;3.62;82.40
14089;BME280;7120;52.890;6.040;2023-02-24T00:26:54;101429.00;;;3.68;82.50
14089;BME280;7120;52.890;6.040;2023-02-24T00:29:20;101419.38;;;3.89;83.07
14089;BME280;7120;52.890;6.040;2023-02-24T00:31:49;101428.19;;;3.84;82.47
14089;BME280;7120;52.890;6.040;2023-02-24T00:34:23;101423.41;;;4.03;81.36
14089;BME280;7120;52.890;6.040;2023-02-24T00:36:49;101413.91;;;4.18;81.36
14089;BME280;7120;52.890;6.040;2023-02-24T00:39:14;101403.06;;;4.34;80.62
14089;BME280;7120;52.890;6.040;2023-02-24T00:41:41;101403.25;;;4.45;80.95
14089;BME280;7120;52.890;6.040;2023-02-24T00:44:10;101397.81;;;4.45;80.60
14089;BME280;7120;52.890;6.040;2023-02-24T00:46:41;101390.91;;;4.54;80.15
14089;BME280;7120;52.890;6.040;2023-02-24T00:49:12;101380.00;;;4.49;79.43
14089;BME280;7120;52.890;6.040;2023-02-24T00:51:42;101370.97;;;4.43;79.91
14089;BME280;7120;52.890;6.040;2023-02-24T00:54:08;101377.22;;;4.44;80.49
14089;BME280;7120;52.890;6.040;2023-02-24T00:56:39;101365.63;;;4.48;80.66
14089;BME280;7120;52.890;6.040;2023-02-24T00:59:05;101356.34;;;4.61;81.40
14089;BME280;7120;52.890;6.040;2023-02-24T01:01:31;101349.78;;;4.57;81.43
14089;BME280;7120;52.890;6.040;2023-02-24T01:03:59;101349.75;;;4.74;81.19
14089;BME280;7120;52.890;6.040;2023-02-24T01:06:27;101356.81;;;4.96;80.06
14089;BME280;7120;52.890;6.040;2023-02-24T01:08:54;101353.28;;;4.96;80.38
14089;BME280;7120;52.890;6.040;2023-02-24T01:11:24;101351.31;;;4.91;80.69
14089;BME280;7120;52.890;6.040;2023-02-24T01:14:13;101341.91;;;4.94;82.69
14089;BME280;7120;52.890;6.040;2023-02-24T01:16:39;101329.09;;;4.89;81.16
14089;BME280;7120;52.890;6.040;2023-02-24T01:19:18;101327.28;;;4.95;81.23
14089;BME280;7120;52.890;6.040;2023-02-24T01:21:44;101317.91;;;4.86;81.96
14089;BME280;7120;52.890;6.040;2023-02-24T01:24:10;101319.88;;;4.90;82.14
14089;BME280;7120;52.890;6.040;2023-02-24T01:26:36;101308.34;;;4.78;81.75
14089;BME280;7120;52.890;6.040;2023-02-24T01:29:02;101306.06;;;4.92;82.52
14089;BME280;7120;52.890;6.040;2023-02-24T01:31:35;101307.66;;;4.88;82.56
14089;BME280;7120;52.890;6.040;2023-02-24T01:34:03;101292.28;;;4.72;82.25
14089;BME280;7120;52.890;6.040;2023-02-24T01:36:31;101295.50;;;4.68;82.29
14089;BME280;7120;52.890;6.040;2023-02-24T01:39:00;101295.38;;;4.58;82.54
14089;BME280;7120;52.890;6.040;2023-02-24T01:41:26;101287.19;;;4.53;83.10
14089;BME280;7120;52.890;6.040;2023-02-24T01:46:39;101284.44;;;4.31;83.03
14089;BME280;7120;52.890;6.040;2023-02-24T01:51:44;101269.63;;;4.00;84.95
14089;BME280;7120;52.890;6.040;2023-02-24T01:54:14;101265.19;;;4.11;85.19
14089;BME280;7120;52.890;6.040;2023-02-24T01:56:40;101251.28;;;4.02;84.86
14089;BME280;7120;52.890;6.040;2023-02-24T01:59:08;101249.97;;;3.88;86.28
14089;BME280;7120;52.890;6.040;2023-02-24T02:01:34;101249.66;;;3.84;86.84
14089;BME280;7120;52.890;6.040;2023-02-24T02:04:14;101251.66;;;3.94;87.08
14089;BME280;7120;52.890;6.040;2023-02-24T02:06:41;101239.34;;;3.81;86.76
14089;BME280;7120;52.890;6.040;2023-02-24T02:09:08;101229.31;;;3.82;87.40
14089;BME280;7120;52.890;6.040;2023-02-24T02:11:34;101235.38;;;3.89;87.16
14089;BME280;7120;52.890;6.040;2023-02-24T02:14:00;101223.28;;;3.75;87.70
14089;BME280;7120;52.890;6.040;2023-02-24T02:22:38;101216.63;;;3.82;87.68
14089;BME280;7120;52.890;6.040;2023-02-24T02:25:28;101213.91;;;3.82;86.98
14089;BME280;7120;52.890;6.040;2023-02-24T02:30:47;101212.75;;;3.78;87.05
14089;BME280;7120;52.890;6.040;2023-02-24T02:38:50;101200.25;;;3.94;86.60
14089;BME280;7120;52.890;6.040;2023-02-24T02:43:52;101195.28;;;4.03;86.74
14089;BME280;7120;52.890;6.040;2023-02-24T02:46:31;101183.88;;;4.23;85.30
14089;BME280;7120;52.890;6.040;2023-02-24T02:49:02;101180.75;;;4.09;85.65
14089;BME280;7120;52.890;6.040;2023-02-24T02:51:47;101178.28;;;4.29;85.05
14089;BME280;7120;52.890;6.040;2023-02-24T02:54:24;101182.06;;;4.28;85.16
14089;BME280;7120;52.890;6.040;2023-02-24T02:59:34;101176.34;;;4.25;85.31
14089;BME280;7120;52.890;6.040;2023-02-24T03:02:02;101169.66;;;4.32;84.51
14089;BME280;7120;52.890;6.040;2023-02-24T03:04:49;101162.66;;;4.14;84.66
14089;BME280;7120;52.890;6.040;2023-02-24T03:07:16;101160.13;;;4.30;85.20
14089;BME280;7120;52.890;6.040;2023-02-24T03:09:48;101160.78;;;4.37;85.07
14089;BME280;7120;52.890;6.040;2023-02-24T03:12:19;101144.53;;;4.37;84.55
14089;BME280;7120;52.890;6.040;2023-02-24T03:14:50;101156.50;;;4.41;84.77
14089;BME280;7120;52.890;6.040;2023-02-24T03:17:21;101131.56;;;4.39;84.03
14089;BME280;7120;52.890;6.040;2023-02-24T03:19:54;101138.16;;;4.48;83.78
14089;BME280;7120;52.890;6.040;2023-02-24T03:22:35;101125.69;;;4.47;83.60
14089;BME280;7120;52.890;6.040;2023-02-24T03:25:05;101128.81;;;4.61;84.46
14089;BME280;7120;52.890;6.040;2023-02-24T03:30:05;101128.16;;;4.76;82.13
14089;BME280;7120;52.890;6.040;2023-02-24T03:32:44;101121.38;;;4.78;82.35
14089;BME280;7120;52.890;6.040;2023-02-24T03:35:23;101112.41;;;4.73;82.25
14089;BME280;7120;52.890;6.040;2023-02-24T03:37:50;101104.03;;;4.74;82.78
14089;BME280;7120;52.890;6.040;2023-02-24T03:40:17;101102.13;;;4.75;82.22
14089;BME280;7120;52.890;6.040;2023-02-24T03:42:56;101093.47;;;4.73;81.99
14089;BME280;7120;52.890;6.040;2023-02-24T03:45:22;101100.75;;;4.72;82.24
14089;BME280;7120;52.890;6.040;2023-02-24T03:47:49;101107.75;;;4.68;82.50
14089;BME280;7120;52.890;6.040;2023-02-24T03:50:17;101085.22;;;4.62;82.43
14089;BME280;7120;52.890;6.040;2023-02-24T03:58:33;101084.66;;;4.87;82.56
14089;BME280;7120;52.890;6.040;2023-02-24T04:01:22;101072.34;;;4.75;83.05
14089;BME280;7120;52.890;6.040;2023-02-24T04:06:37;101058.03;;;4.79;82.27
14089;BME280;7120;52.890;6.040;2023-02-24T04:09:18;101041.13;;;4.72;83.40
14089;BME280;7120;52.890;6.040;2023-02-24T04:14:38;101041.53;;;4.86;83.00
14089;BME280;7120;52.890;6.040;2023-02-24T04:17:10;101033.41;;;4.86;82.58
14089;BME280;7120;52.890;6.040;2023-02-24T04:19:40;101039.41;;;4.93;83.82
14089;BME280;7120;52.890;6.040;2023-02-24T04:22:11;101036.53;;;5.05;82.68
14089;BME280;7120;52.890;6.040;2023-02-24T04:24:39;101031.53;;;4.91;83.26
14089;BME280;7120;52.890;6.040;2023-02-24T04:27:09;101017.56;;;5.05;82.34
14089;BME280;7120;52.890;6.040;2023-02-24T04:29:40;101025.22;;;5.18;81.99
14089;BME280;7120;52.890;6.040;2023-02-24T04:32:13;101026.59;;;5.20;81.94
14089;BME280;7120;52.890;6.040;2023-02-24T04:34:41;101008.66;;;5.14;82.03
14089;BME280;7120;52.890;6.040;2023-02-24T04:37:07;101004.09;;;5.20;81.43
14089;BME280;7120;52.890;6.040;2023-02-24T04:39:32;100991.06;;;5.17;82.49
14089;BME280;7120;52.890;6.040;2023-02-24T04:41:58;100995.59;;;5.06;82.42
14089;BME280;7120;52.890;6.040;2023-02-24T04:44:26;100984.84;;;5.16;81.80
14089;BME280;7120;52.890;6.040;2023-02-24T04:46:52;100975.31;;;5.09;81.59
14089;BME280;7120;52.890;6.040;2023-02-24T04:49:18;100968.00;;;5.14;81.39
14089;BME280;7120;52.890;6.040;2023-02-24T04:51:44;100960.69;;;5.10;81.72
14089;BME280;7120;52.890;6.040;2023-02-24T04:54:12;100969.19;;;5.29;81.69
14089;BME280;7120;52.890;6.040;2023-02-24T04:56:42;100960.75;;;5.25;81.08
14089;BME280;7120;52.890;6.040;2023-02-24T04:59:09;100956.69;;;5.28;81.30
14089;BME280;7120;52.890;6.040;2023-02-24T05:01:35;100943.66;;;5.24;80.42
14089;BME280;7120;52.890;6.040;2023-02-24T05:04:05;100948.66;;;5.43;80.44
14089;BME280;7120;52.890;6.040;2023-02-24T05:06:30;100935.91;;;5.48;79.71
14089;BME280;7120;52.890;6.040;2023-02-24T05:08:56;100935.06;;;5.38;79.97
14089;BME280;7120;52.890;6.040;2023-02-24T05:11:21;100914.97;;;5.29;80.52
14089;BME280;7120;52.890;6.040;2023-02-24T05:13:47;100902.22;;;5.29;80.17
14089;BME280;7120;52.890;6.040;2023-02-24T05:16:15;100912.84;;;5.46;79.83
14089;BME280;7120;52.890;6.040;2023-02-24T05:18:41;100904.16;;;5.44;79.92
14089;BME280;7120;52.890;6.040;2023-02-24T05:21:09;100898.72;;;5.39;79.45
14089;BME280;7120;52.890;6.040;2023-02-24T05:23:53;100887.06;;;5.43;80.39
14089;BME280;7120;52.890;6.040;2023-02-24T05:26:21;100882.19;;;5.45;80.30
14089;BME280;7120;52.890;6.040;2023-02-24T05:28:48;100878.13;;;5.43;80.23
14089;BME280;7120;52.890;6.040;2023-02-24T05:31:22;100879.44;;;5.35;80.63
14089;BME280;7120;52.890;6.040;2023-02-24T05:33:51;100864.28;;;5.49;80.90
14089;BME280;7120;52.890;6.040;2023-02-24T05:36:22;100867.56;;;5.57;80.35
14089;BME280;7120;52.890;6.040;2023-02-24T05:38:53;100853.97;;;5.46;80.88
14089;BME280;7120;52.890;6.040;2023-02-24T05:41:38;100855.34;;;5.49;81.19
14089;BME280;7120;52.890;6.040;2023-02-24T05:44:10;100846.94;;;5.45;81.03
14089;BME280;7120;52.890;6.040;2023-02-24T05:46:38;100846.69;;;5.52;81.50
14089;BME280;7120;52.890;6.040;2023-02-24T05:49:06;100835.53;;;5.48;81.53
14089;BME280;7120;52.890;6.040;2023-02-24T05:51:37;100827.69;;;5.47;81.64
14089;BME280;7120;52.890;6.040;2023-02-24T05:54:11;100830.41;;;5.52;82.59
14089;BME280;7120;52.890;6.040;2023-02-24T05:56:39;100831.47;;;5.46;82.74
14089;BME280;7120;52.890;6.040;2023-02-24T05:59:06;100825.78;;;5.53;82.64
14089;BME280;7120;52.890;6.040;2023-02-24T06:01:37;100807.31;;;5.39;83.33
14089;BME280;7120;52.890;6.040;2023-02-24T06:04:08;100823.59;;;5.49;83.53
14089;BME280;7120;52.890;6.040;2023-02-24T06:06:38;100817.94;;;5.51;84.13
14089;BME280;7120;52.890;6.040;2023-02-24T06:09:10;100805.13;;;5.31;84.71
14089;BME280;7120;52.890;6.040;2023-02-24T06:11:40;100801.06;;;5.29;84.86
14089;BME280;7120;52.890;6.040;2023-02-24T06:14:07;100788.56;;;5.28;86.18
14089;BME280;7120;52.890;6.040;2023-02-24T06:16:35;100792.66;;;5.35;86.55
14089;BME280;7120;52.890;6.040;2023-02-24T06:19:00;100797.81;;;5.27;87.42
14089;BME280;7120;52.890;6.040;2023-02-24T06:21:26;100797.81;;;5.21;87.79
14089;BME280;7120;52.890;6.040;2023-02-24T06:23:55;100781.78;;;5.10;87.85
14089;BME280;7120;52.890;6.040;2023-02-24T06:26:25;100784.25;;;5.27;88.80
14089;BME280;7120;52.890;6.040;2023-02-24T06:28:54;100777.72;;;5.17;89.03
14089;BME280;7120;52.890;6.040;2023-02-24T06:31:19;100772.03;;;5.19;88.81
14089;BME280;7120;52.890;6.040;2023-02-24T06:33:45;100779.66;;;5.22;90.33
14089;BME280;7120;52.890;6.040;2023-02-24T06:36:11;100773.38;;;5.11;89.97
14089;BME280;7120;52.890;6.040;2023-02-24T06:38:39;100772.03;;;5.24;90.94
14089;BME280;7120;52.890;6.040;2023-02-24T06:41:06;100772.31;;;5.22;90.81
14089;BME280;7120;52.890;6.040;2023-02-24T06:43:43;100766.09;;;5.22;90.94
14089;BME280;7120;52.890;6.040;2023-02-24T06:46:11;100760.09;;;5.15;91.57
14089;BME280;7120;52.890;6.040;2023-02-24T06:48:37;100760.38;;;5.08;92.40
14089;BME280;7120;52.890;6.040;2023-02-24T06:53:29;100750.31;;;5.04;93.69
14089;BME280;7120;52.890;6.040;2023-02-24T06:56:02;100738.16;;;5.16;93.33
14089;BME280;7120;52.890;6.040;2023-02-24T06:58:27;100744.09;;;5.08;92.90
14089;BME280;7120;52.890;6.040;2023-02-24T07:00:53;100755.50;;;5.15;93.48
14089;BME280;7120;52.890;6.040;2023-02-24T07:03:23;100743.56;;;5.16;93.38
14089;BME280;7120;52.890;6.040;2023-02-24T07:05:51;100738.41;;;5.10;93.21
14089;BME280;7120;52.890;6.040;2023-02-24T07:08:36;100728.91;;;5.12;93.42
14089;BME280;7120;52.890;6.040;2023-02-24T07:11:03;100735.41;;;5.06;94.54
14089;BME280;7120;52.890;6.040;2023-02-24T07:13:31;100738.97;;;5.17;93.91
14089;BME280;7120;52.890;6.040;2023-02-24T07:16:00;100719.72;;;5.08;94.23
14089;BME280;7120;52.890;6.040;2023-02-24T07:18:34;100723.22;;;5.14;94.19
14089;BME280;7120;52.890;6.040;2023-02-24T07:21:01;100719.69;;;5.13;94.51
14089;BME280;7120;52.890;6.040;2023-02-24T07:23:39;100718.09;;;5.28;94.42
14089;BME280;7120;52.890;6.040;2023-02-24T07:26:13;100709.41;;;5.20;94.71
14089;BME280;7120;52.890;6.040;2023-02-24T07:28:40;100719.72;;;5.23;95.11
14089;BME280;7120;52.890;6.040;2023-02-24T07:31:08;100704.81;;;5.26;95.18
14089;BME280;7120;52.890;6.040;2023-02-24T07:33:39;100713.75;;;5.32;94.75
14089;BME280;7120;52.890;6.040;2023-02-24T07:36:06;100704.53;;;5.22;94.75
14089;BME280;7120;52.890;6.040;2023-02-24T07:38:38;100676.88;;;5.15;94.94
14089;BME280;7120;52.890;6.040;2023-02-24T07:41:05;100689.63;;;5.30;94.91
14089;BME280;7120;52.890;6.040;2023-02-24T07:43:32;100694.78;;;5.32;94.74
14089;BME280;7120;52.890;6.040;2023-02-24T07:46:07;100688.81;;;5.35;95.65
14089;BME280;7120;52.890;6.040;2023-02-24T07:48:34;100683.66;;;5.33;95.86
14089;BME280;7120;52.890;6.040;2023-02-24T07:51:11;100685.03;;;5.31;95.92
14089;BME280;7120;52.890;6.040;2023-02-24T07:53:37;100662.78;;;5.39;96.02
14089;BME280;7120;52.890;6.040;2023-02-24T07:56:10;100673.88;;;5.42;96.64
14089;BME280;7120;52.890;6.040;2023-02-24T07:58:47;100664.41;;;5.50;96.43
14089;BME280;7120;52.890;6.040;2023-02-24T08:01:16;100667.41;;;5.43;96.81
14089;BME280;7120;52.890;6.040;2023-02-24T08:03:57;100652.19;;;5.47;97.55
14089;BME280;7120;52.890;6.040;2023-02-24T08:06:33;100659.25;;;5.28;97.45
14089;BME280;7120;52.890;6.040;2023-02-24T08:09:07;100652.19;;;5.47;98.39
14089;BME280;7120;52.890;6.040;2023-02-24T08:11:53;100647.31;;;5.34;98.85
14089;BME280;7120;52.890;6.040;2023-02-24T08:14:27;100648.13;;;5.40;98.80
14089;BME280;7120;52.890;6.040;2023-02-24T08:17:09;100626.44;;;5.35;99.28
14089;BME280;7120;52.890;6.040;2023-02-24T08:19:35;100643.78;;;5.49;100.00
14089;BME280;7120;52.890;6.040;2023-02-24T08:22:07;100618.59;;;5.33;100.00
14089;BME280;7120;52.890;6.040;2023-02-24T08:24:53;100627.25;;;5.45;100.00
14089;BME280;7120;52.890;6.040;2023-02-24T08:27:21;100621.84;;;5.40;100.00
14089;BME280;7120;52.890;6.040;2023-02-24T08:29:52;100621.03;;;5.45;100.00
14089;BME280;7120;52.890;6.040;2023-02-24T08:35:07;100616.38;;;5.56;100.00
14089;BME280;7120;52.890;6.040;2023-02-24T08:37:43;100616.66;;;5.54;100.00
14089;BME280;7120;52.890;6.040;2023-02-24T08:40:24;100602.88;;;5.30;100.00
14089;BME280;7120;52.890;6.040;2023-02-24T08:42:57;100603.38;;;5.42;100.00
14089;BME280;7120;52.890;6.040;2023-02-24T08:45:31;100595.53;;;5.51;100.00
14089;BME280;7120;52.890;6.040;2023-02-24T08:47:58;100581.63;;;5.63;100.00
14089;BME280;7120;52.890;6.040;2023-02-24T08:50:26;100576.50;;;5.56;100.00
14089;BME280;7120;52.890;6.040;2023-02-24T08:52:56;100576.19;;;5.78;100.00
14089;BME280;7120;52.890;6.040;2023-02-24T08:55:23;100581.91;;;5.71;100.00
14089;BME280;7120;52.890;6.040;2023-02-24T08:57:55;100555.88;;;5.65;100.00
14089;BME280;7120;52.890;6.040;2023-02-24T09:00:26;100562.94;;;5.56;100.00
14089;BME280;7120;52.890;6.040;2023-02-24T09:03:07;100554.22;;;5.79;100.00
14089;BME280;7120;52.890;6.040;2023-02-24T09:05:32;100540.59;;;5.85;100.00
14089;BME280;7120;52.890;6.040;2023-02-24T09:08:03;100547.41;;;5.82;100.00
14089;BME280;7120;52.890;6.040;2023-02-24T09:10:28;100536.81;;;5.91;100.00
14089;BME280;7120;52.890;6.040;2023-02-24T09:12:54;100535.97;;;5.90;100.00
14089;BME280;7120;52.890;6.040;2023-02-24T09:15:19;100533.56;;;5.94;100.00
14089;BME280;7120;52.890;6.040;2023-02-24T09:17:46;100529.44;;;6.01;100.00
14089;BME280;7120;52.890;6.040;2023-02-24T09:20:20;100524.25;;;6.05;100.00
14089;BME280;7120;52.890;6.040;2023-02-24T09:22:50;100519.00;;;6.19;100.00
14089;BME280;7120;52.890;6.040;2023-02-24T09:25:29;100522.59;;;6.14;100.00
14089;BME280;7120;52.890;6.040;2023-02-24T09:28:16;100515.78;;;6.17;100.00
14089;BME280;7120;52.890;6.040;2023-02-24T09:30:45;100502.97;;;6.27;100.00
14089;BME280;7120;52.890;6.040;2023-02-24T09:33:34;100503.53;;;6.19;100.00
14089;BME280;7120;52.890;6.040;2023-02-24T09:36:10;100500.41;;;6.41;100.00
14089;BME280;7120;52.890;6.040;2023-02-24T09:38:49;100499.56;;;6.46;100.00
14089;BME280;7120;52.890;6.040;2023-02-24T09:43:59;100480.03;;;6.44;100.00
14089;BME280;7120;52.890;6.040;2023-02-24T09:46:30;100485.25;;;6.35;100.00
14089;BME280;7120;52.890;6.040;2023-02-24T09:49:06;100502.84;;;6.43;100.00
14089;BME280;7120;52.890;6.040;2023-02-24T09:51:36;100513.94;;;6.51;100.00
14089;BME280;7120;52.890;6.040;2023-02-24T09:54:18;100511.41;;;6.60;100.00
14089;BME280;7120;52.890;6.040;2023-02-24T09:56:57;100503.44;;;6.69;100.00
14089;BME280;7120;52.890;6.040;2023-02-24T10:02:32;100496.72;;;6.95;100.00
14089;BME280;7120;52.890;6.040;2023-02-24T10:05:24;100484.34;;;7.08;100.00
14089;BME280;7120;52.890;6.040;2023-02-24T10:07:52;100483.69;;;7.21;100.00
14089;BME280;7120;52.890;6.040;2023-02-24T10:10:31;100480.91;;;7.50;100.00
14089;BME280;7120;52.890;6.040;2023-02-24T10:13:20;100495.47;;;7.83;100.00
14089;BME280;7120;52.890;6.040;2023-02-24T10:15:56;100491.94;;;8.02;99.76
14089;BME280;7120;52.890;6.040;2023-02-24T10:21:03;100487.75;;;8.09;99.04
14089;BME280;7120;52.890;6.040;2023-02-24T10:23:56;100485.88;;;8.47;97.33
14089;BME280;7120;52.890;6.040;2023-02-24T10:26:29;100486.44;;;9.37;94.72
14089;BME280;7120;52.890;6.040;2023-02-24T10:29:19;100469.78;;;9.66;93.30
14089;BME280;7120;52.890;6.040;2023-02-24T10:32:21;100468.78;;;9.62;89.64
14089;BME280;7120;52.890;6.040;2023-02-24T10:34:58;100474.63;;;9.42;88.62
14089;BME280;7120;52.890;6.040;2023-02-24T10:37:24;100467.06;;;9.11;89.38
14089;BME280;7120;52.890;6.040;2023-02-24T10:39:59;100468.03;;;9.01;87.82
14089;BME280;7120;52.890;6.040;2023-02-24T10:42:30;100469.69;;;9.44;88.80
14089;BME280;7120;52.890;6.040;2023-02-24T10:45:16;100459.03;;;10.19;84.39
14089;BME280;7120;52.890;6.040;2023-02-24T10:47:55;100455.63;;;10.50;82.00
14089;BME280;7120;52.890;6.040;2023-02-24T10:50:26;100455.66;;;10.81;82.09
14089;BME280;7120;52.890;6.040;2023-02-24T10:53:00;100449.69;;;10.34;82.71
14089;BME280;7120;52.890;6.040;2023-02-24T10:55:46;100454.56;;;10.37;79.54
14089;BME280;7120;52.890;6.040;2023-02-24T11:00:54;100451.50;;;10.39;80.20
14089;BME280;7120;52.890;6.040;2023-02-24T11:03:54;100448.34;;;10.09;81.37
14089;BME280;7120;52.890;6.040;2023-02-24T11:06:30;100443.81;;;10.05;79.95
14089;BME280;7120;52.890;6.040;2023-02-24T11:09:20;100426.38;;;9.78;81.97
14089;BME280;7120;52.890;6.040;2023-02-24T11:11:55;100425.91;;;9.62;81.44
14089;BME280;7120;52.890;6.040;2023-02-24T11:14:58;100431.97;;;9.59;81.77
14089;BME280;7120;52.890;6.040;2023-02-24T11:20:29;100432.47;;;9.61;82.36
14089;BME280;7120;52.890;6.040;2023-02-24T11:22:55;100432.00;;;9.18;81.08
14089;BME280;7120;52.890;6.040;2023-02-24T11:25:23;100429.75;;;8.93;82.03
14089;BME280;7120;52.890;6.040;2023-02-24T11:27:51;100420.72;;;8.78;84.93
14089;BME280;7120;52.890;6.040;2023-02-24T11:35:56;100415.22;;;8.97;82.69
14089;BME280;7120;52.890;6.040;2023-02-24T11:38:29;100403.47;;;9.52;80.06
14089;BME280;7120;52.890;6.040;2023-02-24T11:41:06;100406.16;;;10.38;77.98
14089;BME280;7120;52.890;6.040;2023-02-24T11:43:35;100391.84;;;10.94;76.74
14089;BME280;7120;52.890;6.040;2023-02-24T11:46:11;100377.13;;;10.82;75.96
14089;BME280;7120;52.890;6.040;2023-02-24T11:48:44;100381.94;;;10.45;76.31
14089;BME280;7120;52.890;6.040;2023-02-24T11:51:17;100377.00;;;10.11;76.39
14089;BME280;7120;52.890;6.040;2023-02-24T11:53:51;100374.84;;;9.85;78.09
14089;BME280;7120;52.890;6.040;2023-02-24T11:56:37;100383.53;;;10.01;78.59
14089;BME280;7120;52.890;6.040;2023-02-24T11:59:30;100376.56;;;9.59;75.87
14089;BME280;7120;52.890;6.040;2023-02-24T12:02:26;100380.47;;;8.89;79.00
14089;BME280;7120;52.890;6.040;2023-02-24T12:10:06;100354.78;;;8.76;82.53
14089;BME280;7120;52.890;6.040;2023-02-24T12:16:05;100359.91;;;9.47;79.88
14089;BME280;7120;52.890;6.040;2023-02-24T12:18:33;100352.00;;;9.59;79.82
14089;BME280;7120;52.890;6.040;2023-02-24T12:23:34;100358.66;;;9.67;78.47
14089;BME280;7120;52.890;6.040;2023-02-24T12:34:11;100356.59;;;9.08;78.90
14089;BME280;7120;52.890;6.040;2023-02-24T12:42:16;100352.06;;;8.63;79.41
14089;BME280;7120;52.890;6.040;2023-02-24T12:53:42;100354.34;;;8.23;76.72
14089;BME280;7120;52.890;6.040;2023-02-24T12:56:22;100356.56;;;8.40;77.51
14089;BME280;7120;52.890;6.040;2023-02-24T12:58:51;100365.31;;;9.24;73.75
14089;BME280;7120;52.890;6.040;2023-02-24T13:02:15;100349.91;;;9.42;74.36
14089;BME280;7120;52.890;6.040;2023-02-24T13:12:54;100329.03;;;8.69;75.31
14089;BME280;7120;52.890;6.040;2023-02-24T13:15:26;100332.25;;;9.26;74.97
14089;BME280;7120;52.890;6.040;2023-02-24T13:17:55;100322.47;;;10.06;71.43
14089;BME280;7120;52.890;6.040;2023-02-24T13:20:33;100330.63;;;9.97;72.61
14089;BME280;7120;52.890;6.040;2023-02-24T13:23:01;100325.53;;;9.82;70.79
14089;BME280;7120;52.890;6.040;2023-02-24T13:25:36;100346.84;;;9.44;72.93
14089;BME280;7120;52.890;6.040;2023-02-24T13:28:05;100333.88;;;9.13;76.05
14089;BME280;7120;52.890;6.040;2023-02-24T13:30:37;100333.16;;;8.39;77.46
14089;BME280;7120;52.890;6.040;2023-02-24T13:33:27;100333.88;;;8.25;80.13
14089;BME280;7120;52.890;6.040;2023-02-24T13:36:17;100334.19;;;7.72;84.58
14089;BME280;7120;52.890;6.040;2023-02-24T13:39:17;100319.88;;;7.99;84.85
14089;BME280;7120;52.890;6.040;2023-02-24T13:41:44;100331.53;;;8.51;83.65
14089;BME280;7120;52.890;6.040;2023-02-24T13:44:26;100337.31;;;8.77;82.56
14089;BME280;7120;52.890;6.040;2023-02-24T13:52:20;100341.03;;;9.23;81.53
14089;BME280;7120;52.890;6.040;2023-02-24T13:55:02;100332.06;;;8.95;79.29
14089;BME280;7120;52.890;6.040;2023-02-24T14:00:27;100321.84;;;8.73;82.36
14089;BME280;7120;52.890;6.040;2023-02-24T14:02:57;100315.50;;;8.64;82.64
14089;BME280;7120;52.890;6.040;2023-02-24T14:07:51;100323.38;;;8.19;84.87
14089;BME280;7120;52.890;6.040;2023-02-24T14:10:21;100315.19;;;7.86;87.92
14089;BME280;7120;52.890;6.040;2023-02-24T14:12:49;100322.19;;;7.92;89.16
14089;BME280;7120;52.890;6.040;2023-02-24T14:15:23;100310.59;;;8.01;90.18
14089;BME280;7120;52.890;6.040;2023-02-24T14:18:20;100297.94;;;8.23;89.90
14089;BME280;7120;52.890;6.040;2023-02-24T14:20:46;100295.09;;;8.47;90.79
14089;BME280;7120;52.890;6.040;2023-02-24T14:25:52;100291.28;;;8.62;87.71
14089;BME280;7120;52.890;6.040;2023-02-24T14:28:21;100288.53;;;8.48;86.47
14089;BME280;7120;52.890;6.040;2023-02-24T14:30:53;100292.19;;;8.71;85.88
14089;BME280;7120;52.890;6.040;2023-02-24T14:33:32;100291.78;;;8.92;83.78
14089;BME280;7120;52.890;6.040;2023-02-24T14:36:00;100290.97;;;8.64;83.51
14089;BME280;7120;52.890;6.040;2023-02-24T14:38:33;100286.31;;;8.50;83.97
14089;BME280;7120;52.890;6.040;2023-02-24T14:41:00;100296.00;;;8.57;85.66
14089;BME280;7120;52.890;6.040;2023-02-24T14:43:26;100306.13;;;8.23;85.97
14089;BME280;7120;52.890;6.040;2023-02-24T14:45:52;100308.75;;;7.63;88.19
14089;BME280;7120;52.890;6.040;2023-02-24T14:48:26;100308.00;;;7.39;87.82
14089;BME280;7120;52.890;6.040;2023-02-24T14:53:45;100316.81;;;7.12;87.03
14089;BME280;7120;52.890;6.040;2023-02-24T14:56:12;100306.00;;;7.07;86.31
14089;BME280;7120;52.890;6.040;2023-02-24T14:58:43;100306.47;;;7.14;88.11
14089;BME280;7120;52.890;6.040;2023-02-24T15:01:30;100297.78;;;7.12;87.02
14089;BME280;7120;52.890;6.040;2023-02-24T15:03:59;100304.63;;;7.28;87.56
14089;BME280;7120;52.890;6.040;2023-02-24T15:06:29;100306.31;;;7.43;87.59
14089;BME280;7120;52.890;6.040;2023-02-24T15:09:02;100290.72;;;7.30;86.12
14089;BME280;7120;52.890;6.040;2023-02-24T15:11:30;100281.78;;;7.29;86.61
14089;BME280;7120;52.890;6.040;2023-02-24T15:14:06;100290.53;;;7.26;85.37
14089;BME280;7120;52.890;6.040;2023-02-24T15:16:44;100296.03;;;7.21;85.20
14089;BME280;7120;52.890;6.040;2023-02-24T15:21:55;100285.06;;;7.07;84.95
14089;BME280;7120;52.890;6.040;2023-02-24T15:24:26;100313.97;;;7.22;85.67
14089;BME280;7120;52.890;6.040;2023-02-24T15:27:01;100307.81;;;6.93;83.74
14089;BME280;7120;52.890;6.040;2023-02-24T15:29:29;100300.72;;;6.49;84.69
14089;BME280;7120;52.890;6.040;2023-02-24T15:31:57;100301.06;;;6.42;85.20
14089;BME280;7120;52.890;6.040;2023-02-24T15:34:34;100300.88;;;6.57;85.64
14089;BME280;7120;52.890;6.040;2023-02-24T15:37:24;100309.50;;;6.65;85.96
14089;BME280;7120;52.890;6.040;2023-02-24T15:40:01;100302.66;;;6.67;85.98
14089;BME280;7120;52.890;6.040;2023-02-24T15:42:30;100315.78;;;6.60;87.60